sensor_id;sensor_type;location;lat;lon;timestamp;P1;durP1;ratioP1;P2;durP2;ratioP2
81903;SDS011;71370;-33.792;151.032;2023-11-21T00:00:52;3.40;;;0.90;;
81903;SDS011;71370;-33.792;151.032;2023-11-21T00:01:59;4.00;;;1.10;;
81903;SDS011;71370;-33.792;151.032;2023-11-21T00:03:06;4.30;;;1.20;;
81903;SDS011;71370;-33.792;151.032;2023-11-21T00:04:13;4.10;;;1.10;;
81903;SDS011;71370;-33.792;151.032;2023-11-21T00:05:21;5.40;;;1.20;;
81903;SDS011;71370;-33.792;151.032;2023-11-21T00:06:28;3.00;;;0.70;;
81903;SDS011;71370;-33.792;151.032;2023-11-21T00:07:36;2.80;;;1.10;;
81903;SDS011;71370;-33.792;151.032;2023-11-21T00:08:43;2.40;;;0.70;;
81903;SDS011;71370;-33.792;151.032;2023-11-21T00:09:50;4.50;;;0.80;;
81903;SDS011;71370;-33.792;151.032;2023-11-21T00:10:57;4.70;;;1.00;;
81903;SDS011;71370;-33.792;151.032;2023-11-21T00:12:06;3.60;;;0.90;;
81903;SDS011;71370;-33.792;151.032;2023-11-21T00:13:15;2.10;;;0.70;;
81903;SDS011;71370;-33.792;151.032;2023-11-21T00:14:23;3.50;;;0.80;;
81903;SDS011;71370;-33.792;151.032;2023-11-21T00:15:30;4.40;;;1.10;;
81903;SDS011;71370;-33.792;151.032;2023-11-21T00:16:37;4.50;;;0.90;;
81903;SDS011;71370;-33.792;151.032;2023-11-21T00:17:45;4.00;;;0.70;;
81903;SDS011;71370;-33.792;151.032;2023-11-21T00:18:52;4.60;;;0.80;;
81903;SDS011;71370;-33.792;151.032;2023-11-21T00:20:00;2.60;;;1.10;;
81903;SDS011;71370;-33.792;151.032;2023-11-21T00:21:07;3.30;;;0.60;;
81903;SDS011;71370;-33.792;151.032;2023-11-21T00:22:14;4.90;;;0.70;;
81903;SDS011;71370;-33.792;151.032;2023-11-21T00:23:21;2.80;;;0.90;;
81903;SDS011;71370;-33.792;151.032;2023-11-21T00:24:28;2.80;;;0.70;;
81903;SDS011;71370;-33.792;151.032;2023-11-21T00:25:36;3.30;;;0.70;;
81903;SDS011;71370;-33.792;151.032;2023-11-21T00:26:43;2.10;;;0.90;;
81903;SDS011;71370;-33.792;151.032;2023-11-21T00:27:50;2.10;;;0.60;;
81903;SDS011;71370;-33.792;151.032;2023-11-21T00:28:57;3.70;;;0.80;;
81903;SDS011;71370;-33.792;151.032;2023-11-21T00:30:04;3.80;;;0.90;;
81903;SDS011;71370;-33.792;151.032;2023-11-21T00:31:12;3.20;;;0.70;;
81903;SDS011;71370;-33.792;151.032;2023-11-21T00:32:20;3.20;;;0.70;;
81903;SDS011;71370;-33.792;151.032;2023-11-21T00:33:27;2.60;;;0.80;;
81903;SDS011;71370;-33.792;151.032;2023-11-21T00:34:34;3.70;;;0.60;;
81903;SDS011;71370;-33.792;151.032;2023-11-21T00:35:42;3.00;;;0.40;;
81903;SDS011;71370;-33.792;151.032;2023-11-21T00:36:49;3.20;;;0.40;;
81903;SDS011;71370;-33.792;151.032;2023-11-21T00:37:56;3.50;;;0.50;;
81903;SDS011;71370;-33.792;151.032;2023-11-21T00:39:04;2.60;;;0.60;;
81903;SDS011;71370;-33.792;151.032;2023-11-21T00:40:11;2.40;;;0.40;;
81903;SDS011;71370;-33.792;151.032;2023-11-21T00:41:21;2.40;;;0.60;;
81903;SDS011;71370;-33.792;151.032;2023-11-21T00:42:28;2.00;;;0.50;;
81903;SDS011;71370;-33.792;151.032;2023-11-21T00:43:35;1.90;;;0.40;;
81903;SDS011;71370;-33.792;151.032;2023-11-21T00:44:42;3.40;;;0.80;;
81903;SDS011;71370;-33.792;151.032;2023-11-21T00:45:49;3.60;;;0.60;;
81903;SDS011;71370;-33.792;151.032;2023-11-21T00:46:56;2.10;;;0.50;;
81903;SDS011;71370;-33.792;151.032;2023-11-21T00:48:04;2.10;;;0.60;;
81903;SDS011;71370;-33.792;151.032;2023-11-21T00:49:11;3.10;;;0.70;;
81903;SDS011;71370;-33.792;151.032;2023-11-21T00:50:18;1.40;;;0.60;;
81903;SDS011;71370;-33.792;151.032;2023-11-21T00:51:27;3.30;;;1.10;;
81903;SDS011;71370;-33.792;151.032;2023-11-21T00:52:34;3.70;;;0.40;;
81903;SDS011;71370;-33.792;151.032;2023-11-21T00:53:41;2.40;;;0.50;;
81903;SDS011;71370;-33.792;151.032;2023-11-21T00:54:49;2.40;;;0.60;;
81903;SDS011;71370;-33.792;151.032;2023-11-21T00:55:56;2.10;;;0.50;;
81903;SDS011;71370;-33.792;151.032;2023-11-21T00:57:03;2.50;;;0.20;;
81903;SDS011;71370;-33.792;151.032;2023-11-21T00:58:10;3.10;;;0.60;;
81903;SDS011;71370;-33.792;151.032;2023-11-21T00:59:18;2.70;;;0.60;;
81903;SDS011;71370;-33.792;151.032;2023-11-21T01:00:25;2.20;;;0.70;;
81903;SDS011;71370;-33.792;151.032;2023-11-21T01:01:32;3.60;;;0.80;;
81903;SDS011;71370;-33.792;151.032;2023-11-21T01:02:39;2.80;;;0.80;;
81903;SDS011;71370;-33.792;151.032;2023-11-21T01:03:46;4.10;;;0.50;;
81903;SDS011;71370;-33.792;151.032;2023-11-21T01:04:54;1.80;;;0.50;;
81903;SDS011;71370;-33.792;151.032;2023-11-21T01:06:01;1.60;;;0.40;;
81903;SDS011;71370;-33.792;151.032;2023-11-21T01:07:08;3.30;;;0.50;;
81903;SDS011;71370;-33.792;151.032;2023-11-21T01:08:15;2.20;;;0.60;;
81903;SDS011;71370;-33.792;151.032;2023-11-21T01:09:23;1.70;;;0.40;;
81903;SDS011;71370;-33.792;151.032;2023-11-21T01:10:31;3.00;;;0.50;;
81903;SDS011;71370;-33.792;151.032;2023-11-21T01:11:40;2.60;;;1.20;;
81903;SDS011;71370;-33.792;151.032;2023-11-21T01:12:48;1.70;;;0.40;;
81903;SDS011;71370;-33.792;151.032;2023-11-21T01:13:56;2.60;;;0.50;;
81903;SDS011;71370;-33.792;151.032;2023-11-21T01:15:05;2.00;;;0.70;;
81903;SDS011;71370;-33.792;151.032;2023-11-21T01:16:13;3.10;;;0.50;;
81903;SDS011;71370;-33.792;151.032;2023-11-21T01:17:20;2.40;;;0.70;;
81903;SDS011;71370;-33.792;151.032;2023-11-21T01:18:28;1.50;;;0.40;;
81903;SDS011;71370;-33.792;151.032;2023-11-21T01:19:36;2.70;;;0.70;;
81903;SDS011;71370;-33.792;151.032;2023-11-21T01:20:43;1.90;;;0.40;;
81903;SDS011;71370;-33.792;151.032;2023-11-21T01:21:52;2.40;;;0.50;;
81903;SDS011;71370;-33.792;151.032;2023-11-21T01:23:00;2.40;;;0.50;;
81903;SDS011;71370;-33.792;151.032;2023-11-21T01:24:07;1.90;;;0.50;;
81903;SDS011;71370;-33.792;151.032;2023-11-21T01:25:15;1.80;;;0.40;;
81903;SDS011;71370;-33.792;151.032;2023-11-21T01:26:22;3.10;;;0.40;;
81903;SDS011;71370;-33.792;151.032;2023-11-21T01:27:30;2.50;;;0.50;;
81903;SDS011;71370;-33.792;151.032;2023-11-21T01:28:38;2.20;;;0.50;;
81903;SDS011;71370;-33.792;151.032;2023-11-21T01:29:45;1.70;;;0.40;;
81903;SDS011;71370;-33.792;151.032;2023-11-21T01:30:53;1.30;;;0.20;;
81903;SDS011;71370;-33.792;151.032;2023-11-21T01:32:02;1.90;;;0.60;;
81903;SDS011;71370;-33.792;151.032;2023-11-21T01:33:09;1.50;;;0.30;;
81903;SDS011;71370;-33.792;151.032;2023-11-21T01:34:17;2.60;;;0.60;;
81903;SDS011;71370;-33.792;151.032;2023-11-21T01:35:24;1.80;;;0.40;;
81903;SDS011;71370;-33.792;151.032;2023-11-21T01:36:32;1.80;;;0.50;;
81903;SDS011;71370;-33.792;151.032;2023-11-21T01:37:41;2.40;;;0.30;;
81903;SDS011;71370;-33.792;151.032;2023-11-21T01:38:48;1.80;;;0.20;;
81903;SDS011;71370;-33.792;151.032;2023-11-21T01:39:55;2.00;;;0.60;;
81903;SDS011;71370;-33.792;151.032;2023-11-21T01:41:03;1.90;;;0.30;;
81903;SDS011;71370;-33.792;151.032;2023-11-21T01:43:16;1.00;;;0.30;;
81903;SDS011;71370;-33.792;151.032;2023-11-21T01:44:24;1.10;;;0.30;;
81903;SDS011;71370;-33.792;151.032;2023-11-21T01:45:31;1.70;;;0.40;;
81903;SDS011;71370;-33.792;151.032;2023-11-21T01:46:40;1.30;;;0.50;;
81903;SDS011;71370;-33.792;151.032;2023-11-21T01:47:48;1.70;;;0.30;;
81903;SDS011;71370;-33.792;151.032;2023-11-21T01:48:56;1.00;;;0.30;;
81903;SDS011;71370;-33.792;151.032;2023-11-21T01:50:06;1.40;;;0.30;;
81903;SDS011;71370;-33.792;151.032;2023-11-21T01:51:15;1.20;;;0.20;;
81903;SDS011;71370;-33.792;151.032;2023-11-21T01:52:24;1.00;;;0.40;;
81903;SDS011;71370;-33.792;151.032;2023-11-21T01:53:32;0.80;;;0.20;;
81903;SDS011;71370;-33.792;151.032;2023-11-21T01:54:40;1.90;;;0.70;;
81903;SDS011;71370;-33.792;151.032;2023-11-21T01:55:48;1.10;;;0.20;;
81903;SDS011;71370;-33.792;151.032;2023-11-21T01:56:57;2.30;;;0.30;;
81903;SDS011;71370;-33.792;151.032;2023-11-21T01:58:08;1.10;;;0.50;;
81903;SDS011;71370;-33.792;151.032;2023-11-21T01:59:19;1.80;;;0.30;;
81903;SDS011;71370;-33.792;151.032;2023-11-21T02:00:28;1.20;;;0.20;;
81903;SDS011;71370;-33.792;151.032;2023-11-21T02:01:37;1.20;;;0.40;;
81903;SDS011;71370;-33.792;151.032;2023-11-21T02:02:44;0.90;;;0.30;;
81903;SDS011;71370;-33.792;151.032;2023-11-21T02:03:52;1.50;;;0.30;;
81903;SDS011;71370;-33.792;151.032;2023-11-21T02:04:59;1.20;;;0.20;;
81903;SDS011;71370;-33.792;151.032;2023-11-21T02:06:07;2.30;;;0.50;;
81903;SDS011;71370;-33.792;151.032;2023-11-21T02:07:14;1.30;;;0.40;;
81903;SDS011;71370;-33.792;151.032;2023-11-21T02:08:24;1.00;;;0.30;;
81903;SDS011;71370;-33.792;151.032;2023-11-21T02:09:32;1.10;;;0.40;;
81903;SDS011;71370;-33.792;151.032;2023-11-21T02:10:39;1.70;;;0.20;;
81903;SDS011;71370;-33.792;151.032;2023-11-21T02:11:46;2.10;;;0.30;;
81903;SDS011;71370;-33.792;151.032;2023-11-21T02:12:55;0.60;;;0.30;;
81903;SDS011;71370;-33.792;151.032;2023-11-21T02:14:03;0.80;;;0.50;;
81903;SDS011;71370;-33.792;151.032;2023-11-21T02:15:13;1.20;;;0.30;;
81903;SDS011;71370;-33.792;151.032;2023-11-21T02:16:21;0.30;;;0.10;;
81903;SDS011;71370;-33.792;151.032;2023-11-21T02:17:28;0.80;;;0.20;;
81903;SDS011;71370;-33.792;151.032;2023-11-21T02:18:35;0.20;;;0.10;;
81903;SDS011;71370;-33.792;151.032;2023-11-21T02:19:43;0.90;;;0.30;;
81903;SDS011;71370;-33.792;151.032;2023-11-21T02:20:52;1.60;;;0.40;;
81903;SDS011;71370;-33.792;151.032;2023-11-21T02:22:00;0.30;;;0.10;;
81903;SDS011;71370;-33.792;151.032;2023-11-21T02:23:11;0.70;;;0.30;;
81903;SDS011;71370;-33.792;151.032;2023-11-21T02:24:19;1.20;;;0.30;;
81903;SDS011;71370;-33.792;151.032;2023-11-21T02:25:30;0.40;;;0.30;;
81903;SDS011;71370;-33.792;151.032;2023-11-21T02:26:38;0.60;;;0.30;;
81903;SDS011;71370;-33.792;151.032;2023-11-21T02:27:46;1.10;;;0.30;;
81903;SDS011;71370;-33.792;151.032;2023-11-21T02:28:53;0.80;;;0.40;;
81903;SDS011;71370;-33.792;151.032;2023-11-21T02:30:01;0.90;;;0.20;;
81903;SDS011;71370;-33.792;151.032;2023-11-21T02:31:10;1.60;;;0.50;;
81903;SDS011;71370;-33.792;151.032;2023-11-21T02:32:18;0.80;;;0.60;;
81903;SDS011;71370;-33.792;151.032;2023-11-21T02:33:28;1.20;;;0.50;;
81903;SDS011;71370;-33.792;151.032;2023-11-21T02:34:35;1.50;;;0.30;;
81903;SDS011;71370;-33.792;151.032;2023-11-21T02:35:43;0.90;;;0.20;;
81903;SDS011;71370;-33.792;151.032;2023-11-21T02:36:50;0.90;;;0.30;;
81903;SDS011;71370;-33.792;151.032;2023-11-21T02:37:58;1.00;;;0.20;;
81903;SDS011;71370;-33.792;151.032;2023-11-21T02:39:05;0.80;;;0.30;;
81903;SDS011;71370;-33.792;151.032;2023-11-21T02:40:13;1.30;;;0.60;;
81903;SDS011;71370;-33.792;151.032;2023-11-21T02:41:24;1.00;;;0.30;;
81903;SDS011;71370;-33.792;151.032;2023-11-21T02:42:31;0.70;;;0.30;;
81903;SDS011;71370;-33.792;151.032;2023-11-21T02:43:38;0.70;;;0.30;;
81903;SDS011;71370;-33.792;151.032;2023-11-21T02:44:46;0.20;;;0.10;;
81903;SDS011;71370;-33.792;151.032;2023-11-21T02:45:53;0.70;;;0.30;;
81903;SDS011;71370;-33.792;151.032;2023-11-21T02:47:00;0.40;;;0.20;;
81903;SDS011;71370;-33.792;151.032;2023-11-21T02:48:07;0.80;;;0.20;;
81903;SDS011;71370;-33.792;151.032;2023-11-21T02:49:14;0.90;;;0.50;;
81903;SDS011;71370;-33.792;151.032;2023-11-21T02:50:22;1.10;;;0.30;;
81903;SDS011;71370;-33.792;151.032;2023-11-21T02:51:29;0.70;;;0.30;;
81903;SDS011;71370;-33.792;151.032;2023-11-21T02:52:37;0.90;;;0.20;;
81903;SDS011;71370;-33.792;151.032;2023-11-21T02:53:45;0.50;;;0.20;;
81903;SDS011;71370;-33.792;151.032;2023-11-21T02:54:52;1.10;;;0.30;;
81903;SDS011;71370;-33.792;151.032;2023-11-21T02:55:59;0.70;;;0.10;;
81903;SDS011;71370;-33.792;151.032;2023-11-21T02:57:06;1.30;;;0.20;;
81903;SDS011;71370;-33.792;151.032;2023-11-21T02:58:14;1.00;;;0.20;;
81903;SDS011;71370;-33.792;151.032;2023-11-21T02:59:21;0.80;;;0.30;;
81903;SDS011;71370;-33.792;151.032;2023-11-21T03:00:28;1.30;;;0.30;;
81903;SDS011;71370;-33.792;151.032;2023-11-21T03:01:35;0.70;;;0.30;;
81903;SDS011;71370;-33.792;151.032;2023-11-21T03:02:43;0.40;;;0.20;;
81903;SDS011;71370;-33.792;151.032;2023-11-21T03:03:50;1.00;;;0.40;;
81903;SDS011;71370;-33.792;151.032;2023-11-21T03:04:57;1.20;;;0.20;;
81903;SDS011;71370;-33.792;151.032;2023-11-21T03:06:05;1.30;;;0.30;;
81903;SDS011;71370;-33.792;151.032;2023-11-21T03:07:14;1.10;;;0.40;;
81903;SDS011;71370;-33.792;151.032;2023-11-21T03:08:21;1.40;;;0.90;;
81903;SDS011;71370;-33.792;151.032;2023-11-21T03:09:28;1.00;;;0.20;;
81903;SDS011;71370;-33.792;151.032;2023-11-21T03:10:35;1.60;;;0.30;;
81903;SDS011;71370;-33.792;151.032;2023-11-21T03:11:43;0.70;;;0.40;;
81903;SDS011;71370;-33.792;151.032;2023-11-21T03:12:50;0.90;;;0.30;;
81903;SDS011;71370;-33.792;151.032;2023-11-21T03:13:58;0.80;;;0.40;;
81903;SDS011;71370;-33.792;151.032;2023-11-21T03:15:06;1.20;;;0.30;;
81903;SDS011;71370;-33.792;151.032;2023-11-21T03:16:15;0.60;;;0.40;;
81903;SDS011;71370;-33.792;151.032;2023-11-21T03:17:22;1.20;;;0.30;;
81903;SDS011;71370;-33.792;151.032;2023-11-21T03:18:30;1.10;;;0.30;;
81903;SDS011;71370;-33.792;151.032;2023-11-21T03:19:37;1.80;;;0.30;;
81903;SDS011;71370;-33.792;151.032;2023-11-21T03:20:44;2.10;;;0.50;;
81903;SDS011;71370;-33.792;151.032;2023-11-21T03:21:52;0.90;;;0.40;;
81903;SDS011;71370;-33.792;151.032;2023-11-21T03:23:01;1.00;;;0.20;;
81903;SDS011;71370;-33.792;151.032;2023-11-21T03:24:10;1.20;;;0.40;;
81903;SDS011;71370;-33.792;151.032;2023-11-21T03:25:17;1.50;;;0.20;;
81903;SDS011;71370;-33.792;151.032;2023-11-21T03:26:24;1.30;;;0.40;;
81903;SDS011;71370;-33.792;151.032;2023-11-21T03:27:31;0.90;;;0.30;;
81903;SDS011;71370;-33.792;151.032;2023-11-21T03:28:38;2.50;;;0.40;;
81903;SDS011;71370;-33.792;151.032;2023-11-21T03:29:45;1.30;;;0.40;;
81903;SDS011;71370;-33.792;151.032;2023-11-21T03:30:54;0.70;;;0.30;;
81903;SDS011;71370;-33.792;151.032;2023-11-21T03:32:01;1.30;;;0.30;;
81903;SDS011;71370;-33.792;151.032;2023-11-21T03:33:08;2.20;;;0.50;;
81903;SDS011;71370;-33.792;151.032;2023-11-21T03:34:19;1.50;;;1.00;;
81903;SDS011;71370;-33.792;151.032;2023-11-21T03:35:31;2.10;;;1.30;;
81903;SDS011;71370;-33.792;151.032;2023-11-21T03:36:38;1.90;;;0.50;;
81903;SDS011;71370;-33.792;151.032;2023-11-21T03:37:45;1.00;;;0.30;;
81903;SDS011;71370;-33.792;151.032;2023-11-21T03:38:52;1.50;;;0.70;;
81903;SDS011;71370;-33.792;151.032;2023-11-21T03:40:00;1.80;;;0.40;;
81903;SDS011;71370;-33.792;151.032;2023-11-21T03:41:09;1.90;;;0.50;;
81903;SDS011;71370;-33.792;151.032;2023-11-21T03:42:16;2.40;;;0.70;;
81903;SDS011;71370;-33.792;151.032;2023-11-21T03:43:23;2.60;;;0.70;;
81903;SDS011;71370;-33.792;151.032;2023-11-21T03:44:31;1.00;;;0.60;;
81903;SDS011;71370;-33.792;151.032;2023-11-21T03:45:38;1.30;;;0.40;;
81903;SDS011;71370;-33.792;151.032;2023-11-21T03:46:46;2.00;;;0.60;;
81903;SDS011;71370;-33.792;151.032;2023-11-21T03:47:53;1.30;;;0.70;;
81903;SDS011;71370;-33.792;151.032;2023-11-21T03:49:00;1.50;;;0.50;;
81903;SDS011;71370;-33.792;151.032;2023-11-21T03:50:07;1.20;;;0.50;;
81903;SDS011;71370;-33.792;151.032;2023-11-21T03:51:14;1.50;;;0.50;;
81903;SDS011;71370;-33.792;151.032;2023-11-21T03:52:21;1.00;;;0.80;;
81903;SDS011;71370;-33.792;151.032;2023-11-21T03:53:28;1.30;;;0.40;;
81903;SDS011;71370;-33.792;151.032;2023-11-21T03:54:35;0.50;;;0.30;;
81903;SDS011;71370;-33.792;151.032;2023-11-21T03:55:42;1.50;;;1.00;;
81903;SDS011;71370;-33.792;151.032;2023-11-21T03:56:49;2.00;;;0.70;;
81903;SDS011;71370;-33.792;151.032;2023-11-21T03:57:58;1.40;;;0.60;;
81903;SDS011;71370;-33.792;151.032;2023-11-21T03:59:05;1.10;;;0.60;;
81903;SDS011;71370;-33.792;151.032;2023-11-21T04:00:12;1.20;;;0.60;;
81903;SDS011;71370;-33.792;151.032;2023-11-21T04:01:22;1.80;;;0.40;;
81903;SDS011;71370;-33.792;151.032;2023-11-21T04:03:37;0.80;;;0.30;;
81903;SDS011;71370;-33.792;151.032;2023-11-21T04:04:45;1.30;;;0.70;;
81903;SDS011;71370;-33.792;151.032;2023-11-21T04:05:53;1.40;;;0.60;;
81903;SDS011;71370;-33.792;151.032;2023-11-21T04:07:00;1.50;;;0.50;;
81903;SDS011;71370;-33.792;151.032;2023-11-21T04:08:07;0.90;;;0.40;;
81903;SDS011;71370;-33.792;151.032;2023-11-21T04:09:14;1.60;;;0.50;;
81903;SDS011;71370;-33.792;151.032;2023-11-21T04:10:21;1.40;;;0.40;;
81903;SDS011;71370;-33.792;151.032;2023-11-21T04:11:28;1.00;;;0.20;;
81903;SDS011;71370;-33.792;151.032;2023-11-21T04:12:35;1.70;;;0.80;;
81903;SDS011;71370;-33.792;151.032;2023-11-21T04:13:43;1.90;;;0.60;;
81903;SDS011;71370;-33.792;151.032;2023-11-21T04:14:51;1.00;;;0.30;;
81903;SDS011;71370;-33.792;151.032;2023-11-21T04:15:58;1.70;;;0.60;;
81903;SDS011;71370;-33.792;151.032;2023-11-21T04:17:08;0.80;;;0.40;;
81903;SDS011;71370;-33.792;151.032;2023-11-21T04:18:15;0.60;;;0.30;;
81903;SDS011;71370;-33.792;151.032;2023-11-21T04:19:22;0.60;;;0.10;;
81903;SDS011;71370;-33.792;151.032;2023-11-21T04:20:29;0.90;;;0.50;;
81903;SDS011;71370;-33.792;151.032;2023-11-21T04:21:37;1.20;;;0.30;;
81903;SDS011;71370;-33.792;151.032;2023-11-21T04:22:44;1.00;;;0.40;;
81903;SDS011;71370;-33.792;151.032;2023-11-21T04:23:52;0.80;;;0.30;;
81903;SDS011;71370;-33.792;151.032;2023-11-21T04:24:59;1.30;;;0.70;;
81903;SDS011;71370;-33.792;151.032;2023-11-21T04:26:07;1.90;;;0.50;;
81903;SDS011;71370;-33.792;151.032;2023-11-21T04:27:14;0.90;;;0.30;;
81903;SDS011;71370;-33.792;151.032;2023-11-21T04:28:23;2.30;;;0.60;;
81903;SDS011;71370;-33.792;151.032;2023-11-21T04:29:30;1.20;;;0.30;;
81903;SDS011;71370;-33.792;151.032;2023-11-21T04:30:37;0.90;;;0.30;;
81903;SDS011;71370;-33.792;151.032;2023-11-21T04:31:45;1.20;;;0.70;;
81903;SDS011;71370;-33.792;151.032;2023-11-21T04:32:54;0.80;;;0.30;;
81903;SDS011;71370;-33.792;151.032;2023-11-21T04:34:01;1.00;;;0.50;;
81903;SDS011;71370;-33.792;151.032;2023-11-21T04:35:09;1.70;;;0.30;;
81903;SDS011;71370;-33.792;151.032;2023-11-21T04:36:17;1.30;;;0.40;;
81903;SDS011;71370;-33.792;151.032;2023-11-21T04:37:25;0.90;;;0.30;;
81903;SDS011;71370;-33.792;151.032;2023-11-21T04:38:32;1.60;;;0.30;;
81903;SDS011;71370;-33.792;151.032;2023-11-21T04:39:39;1.50;;;0.60;;
81903;SDS011;71370;-33.792;151.032;2023-11-21T04:40:46;1.60;;;0.40;;
81903;SDS011;71370;-33.792;151.032;2023-11-21T04:41:53;1.20;;;0.40;;
81903;SDS011;71370;-33.792;151.032;2023-11-21T04:43:00;2.10;;;0.60;;
81903;SDS011;71370;-33.792;151.032;2023-11-21T04:44:09;1.20;;;0.80;;
81903;SDS011;71370;-33.792;151.032;2023-11-21T04:45:16;1.40;;;0.60;;
81903;SDS011;71370;-33.792;151.032;2023-11-21T04:46:23;2.20;;;0.30;;
81903;SDS011;71370;-33.792;151.032;2023-11-21T04:47:31;2.90;;;0.50;;
81903;SDS011;71370;-33.792;151.032;2023-11-21T04:48:38;2.60;;;0.50;;
81903;SDS011;71370;-33.792;151.032;2023-11-21T04:49:45;1.70;;;0.50;;
81903;SDS011;71370;-33.792;151.032;2023-11-21T04:50:53;1.30;;;0.30;;
81903;SDS011;71370;-33.792;151.032;2023-11-21T04:52:00;1.60;;;0.80;;
81903;SDS011;71370;-33.792;151.032;2023-11-21T04:53:08;3.80;;;0.40;;
81903;SDS011;71370;-33.792;151.032;2023-11-21T04:54:18;1.90;;;0.40;;
81903;SDS011;71370;-33.792;151.032;2023-11-21T04:55:26;2.10;;;0.30;;
81903;SDS011;71370;-33.792;151.032;2023-11-21T04:56:33;1.30;;;0.60;;
81903;SDS011;71370;-33.792;151.032;2023-11-21T04:57:40;1.90;;;0.50;;
81903;SDS011;71370;-33.792;151.032;2023-11-21T04:58:47;0.80;;;0.30;;
81903;SDS011;71370;-33.792;151.032;2023-11-21T04:59:55;4.50;;;0.90;;
81903;SDS011;71370;-33.792;151.032;2023-11-21T05:01:02;2.00;;;0.30;;
81903;SDS011;71370;-33.792;151.032;2023-11-21T05:02:09;0.90;;;0.30;;
81903;SDS011;71370;-33.792;151.032;2023-11-21T05:03:18;0.80;;;0.20;;
81903;SDS011;71370;-33.792;151.032;2023-11-21T05:04:25;1.80;;;0.40;;
81903;SDS011;71370;-33.792;151.032;2023-11-21T05:05:33;1.60;;;0.50;;
81903;SDS011;71370;-33.792;151.032;2023-11-21T05:06:40;3.20;;;0.40;;
81903;SDS011;71370;-33.792;151.032;2023-11-21T05:07:47;2.80;;;0.30;;
81903;SDS011;71370;-33.792;151.032;2023-11-21T05:08:54;3.60;;;0.70;;
81903;SDS011;71370;-33.792;151.032;2023-11-21T05:10:01;3.80;;;1.20;;
81903;SDS011;71370;-33.792;151.032;2023-11-21T05:11:22;2.30;;;0.50;;
81903;SDS011;71370;-33.792;151.032;2023-11-21T05:12:33;2.10;;;0.90;;
81903;SDS011;71370;-33.792;151.032;2023-11-21T05:13:43;3.10;;;0.90;;
81903;SDS011;71370;-33.792;151.032;2023-11-21T05:14:51;3.50;;;0.60;;
81903;SDS011;71370;-33.792;151.032;2023-11-21T05:15:58;2.00;;;0.50;;
81903;SDS011;71370;-33.792;151.032;2023-11-21T05:17:05;3.90;;;0.70;;
81903;SDS011;71370;-33.792;151.032;2023-11-21T05:18:13;2.30;;;0.40;;
81903;SDS011;71370;-33.792;151.032;2023-11-21T05:19:20;2.50;;;0.60;;
81903;SDS011;71370;-33.792;151.032;2023-11-21T05:20:28;2.70;;;0.60;;
81903;SDS011;71370;-33.792;151.032;2023-11-21T05:21:35;1.30;;;0.40;;
81903;SDS011;71370;-33.792;151.032;2023-11-21T05:22:42;2.00;;;0.60;;
81903;SDS011;71370;-33.792;151.032;2023-11-21T05:23:49;1.80;;;1.30;;
81903;SDS011;71370;-33.792;151.032;2023-11-21T05:24:56;1.80;;;0.30;;
81903;SDS011;71370;-33.792;151.032;2023-11-21T05:26:04;2.50;;;0.80;;
81903;SDS011;71370;-33.792;151.032;2023-11-21T05:27:13;1.90;;;0.50;;
81903;SDS011;71370;-33.792;151.032;2023-11-21T05:28:20;2.00;;;0.70;;
81903;SDS011;71370;-33.792;151.032;2023-11-21T05:29:27;1.80;;;1.00;;
81903;SDS011;71370;-33.792;151.032;2023-11-21T05:30:34;2.60;;;0.40;;
81903;SDS011;71370;-33.792;151.032;2023-11-21T05:31:41;2.40;;;0.50;;
81903;SDS011;71370;-33.792;151.032;2023-11-21T05:32:49;1.50;;;0.40;;
81903;SDS011;71370;-33.792;151.032;2023-11-21T05:33:56;3.90;;;0.40;;
81903;SDS011;71370;-33.792;151.032;2023-11-21T05:35:03;2.00;;;0.70;;
81903;SDS011;71370;-33.792;151.032;2023-11-21T05:36:17;1.70;;;0.60;;
81903;SDS011;71370;-33.792;151.032;2023-11-21T05:37:24;2.10;;;0.40;;
81903;SDS011;71370;-33.792;151.032;2023-11-21T05:38:32;2.00;;;0.50;;
81903;SDS011;71370;-33.792;151.032;2023-11-21T05:39:40;3.10;;;0.40;;
81903;SDS011;71370;-33.792;151.032;2023-11-21T05:40:47;3.40;;;0.60;;
81903;SDS011;71370;-33.792;151.032;2023-11-21T05:41:55;2.70;;;0.50;;
81903;SDS011;71370;-33.792;151.032;2023-11-21T05:43:03;2.00;;;0.40;;
81903;SDS011;71370;-33.792;151.032;2023-11-21T05:44:11;3.40;;;0.50;;
81903;SDS011;71370;-33.792;151.032;2023-11-21T05:45:20;3.00;;;0.80;;
81903;SDS011;71370;-33.792;151.032;2023-11-21T05:46:27;2.80;;;0.30;;
81903;SDS011;71370;-33.792;151.032;2023-11-21T05:47:36;2.00;;;0.80;;
81903;SDS011;71370;-33.792;151.032;2023-11-21T05:48:47;1.50;;;0.30;;
81903;SDS011;71370;-33.792;151.032;2023-11-21T05:49:54;3.20;;;0.40;;
81903;SDS011;71370;-33.792;151.032;2023-11-21T05:51:04;2.30;;;0.60;;
81903;SDS011;71370;-33.792;151.032;2023-11-21T05:52:12;2.10;;;0.30;;
81903;SDS011;71370;-33.792;151.032;2023-11-21T05:53:19;2.30;;;0.40;;
81903;SDS011;71370;-33.792;151.032;2023-11-21T05:54:27;2.40;;;0.40;;
81903;SDS011;71370;-33.792;151.032;2023-11-21T05:55:34;1.90;;;0.50;;
81903;SDS011;71370;-33.792;151.032;2023-11-21T05:56:41;2.20;;;0.70;;
81903;SDS011;71370;-33.792;151.032;2023-11-21T05:57:48;2.80;;;0.50;;
81903;SDS011;71370;-33.792;151.032;2023-11-21T05:58:55;1.60;;;0.30;;
81903;SDS011;71370;-33.792;151.032;2023-11-21T06:00:06;4.50;;;0.40;;
81903;SDS011;71370;-33.792;151.032;2023-11-21T06:01:33;3.50;;;0.50;;
81903;SDS011;71370;-33.792;151.032;2023-11-21T06:02:43;1.00;;;0.30;;
81903;SDS011;71370;-33.792;151.032;2023-11-21T06:03:51;1.90;;;0.30;;
81903;SDS011;71370;-33.792;151.032;2023-11-21T06:04:58;1.70;;;0.40;;
81903;SDS011;71370;-33.792;151.032;2023-11-21T06:06:05;2.60;;;0.30;;
81903;SDS011;71370;-33.792;151.032;2023-11-21T06:07:12;2.60;;;0.20;;
81903;SDS011;71370;-33.792;151.032;2023-11-21T06:08:20;2.30;;;0.40;;
81903;SDS011;71370;-33.792;151.032;2023-11-21T06:09:27;2.70;;;0.40;;
81903;SDS011;71370;-33.792;151.032;2023-11-21T06:10:34;1.60;;;0.40;;
81903;SDS011;71370;-33.792;151.032;2023-11-21T06:11:41;2.00;;;0.40;;
81903;SDS011;71370;-33.792;151.032;2023-11-21T06:12:48;1.80;;;0.50;;
81903;SDS011;71370;-33.792;151.032;2023-11-21T06:13:56;2.40;;;0.50;;
81903;SDS011;71370;-33.792;151.032;2023-11-21T06:15:04;2.00;;;0.20;;
81903;SDS011;71370;-33.792;151.032;2023-11-21T06:16:14;2.30;;;0.40;;
81903;SDS011;71370;-33.792;151.032;2023-11-21T06:17:22;2.80;;;0.80;;
81903;SDS011;71370;-33.792;151.032;2023-11-21T06:18:30;2.20;;;0.30;;
81903;SDS011;71370;-33.792;151.032;2023-11-21T06:19:37;1.90;;;0.30;;
81903;SDS011;71370;-33.792;151.032;2023-11-21T06:20:45;2.00;;;0.50;;
81903;SDS011;71370;-33.792;151.032;2023-11-21T06:21:52;2.90;;;0.50;;
81903;SDS011;71370;-33.792;151.032;2023-11-21T06:22:59;1.80;;;0.60;;
81903;SDS011;71370;-33.792;151.032;2023-11-21T06:24:09;3.10;;;0.70;;
81903;SDS011;71370;-33.792;151.032;2023-11-21T06:25:17;1.50;;;0.40;;
81903;SDS011;71370;-33.792;151.032;2023-11-21T06:26:24;2.80;;;0.80;;
81903;SDS011;71370;-33.792;151.032;2023-11-21T06:27:33;2.00;;;0.40;;
81903;SDS011;71370;-33.792;151.032;2023-11-21T06:28:42;1.70;;;0.30;;
81903;SDS011;71370;-33.792;151.032;2023-11-21T06:29:49;1.30;;;0.30;;
81903;SDS011;71370;-33.792;151.032;2023-11-21T06:30:56;2.00;;;0.40;;
81903;SDS011;71370;-33.792;151.032;2023-11-21T06:32:03;1.80;;;0.40;;
81903;SDS011;71370;-33.792;151.032;2023-11-21T06:33:11;3.80;;;0.60;;